Tiempo atmosférico en la estación meteorológica de Fuencaliente, Ciudad Real (640 m.)



Fecha
DESCASC
Temp. máxima en grados centígrados (hora)
DESCASC
Temp. mínima en grados centígrados (hora)
DESCASC
Temp. media en grados centígrados
DESCASC
Racha de viento máxima en m/sg (hora)
DESCASC
Velocidad máxima media en intervalos de 10 minutos(hora)
DESCASC
Precipitaciones diarias en mm
DESCASC
Precipitaciones de 00:00 a 06:00 en mm
DESCASC
Precipitaciones de 06:00 a 12:00 en mm
DESCASC
Precipitaciones de 12:00 a 18:00 en mm
DESCASC
Precipitaciones de 18:00 a 24:00 en mm
DESCASC
31-03-2020 11.7 (15:50) 7.3 (05:40) 9.5 8.89 (08:40) 3.89 (08:50) 14.2 4.6 2 5.2 2.4
30-03-2020 14.9 (15:10) 4.8 (08:20) 9.8 12.22 (20:30) 6.39 (20:30) 1.4 0 0 0 1.4
29-03-2020 17.2 (17:10) 3.1 (00:00) 10.2 6.39 (14:20) 3.06 (13:50) 0 0 0 0 0
28-03-2020 16.7 (16:10) 1.4 (00:00) 9.1 5.83 (03:10) 2.78 (07:10) 0 0 0 0 0
27-03-2020 13.1 (13:50) 3.8 (00:00) 8.5 7.22 (17:00) 3.33 (17:20) 0 0 0 0 0
26-03-2020 18.1 (15:30) 6.4 (00:00) 12.3 10.83 (15:00) 5.83 (15:00) 0 0 0 0 0
25-03-2020 16.5 (14:40) 5.9 (00:00) 11.2 8.89 (00:10) 4.17 (00:10) 0 0 0 0 0
24-03-2020 16.8 (16:10) 7.6 (00:00) 12.2 15 (08:40) 7.22 (09:20) 0.2 0 0.2 0 0
23-03-2020 15.3 (15:30) 4.1 (00:00) 9.7 9.17 (18:10) 3.89 (18:10) 5.2 0.4 0 0 4.8
22-03-2020 10.6 (11:20) 2.3 (06:10) 6.5 7.5 (15:20) 3.33 (15:20) 16.4 0 1.4 3.6 11.4
21-03-2020 11.4 (15:50) 5.6 (00:00) 8.5 11.11 (06:00) 5 (21:50) 15.4 5.2 5.8 1.6 2.8
20-03-2020 17.8 (14:50) 6.8 (00:00) 12.3 6.39 (14:50) 3.06 (14:20) 0 0 0 0 0
19-03-2020 18.5 (14:50) 5.1 (00:00) 11.8 6.39 (12:50) 3.89 (12:50) 0 0 0 0 0
18-03-2020 20.4 (16:00) 9.6 (00:00) 15 10.83 (00:10) 5.83 (00:10) 0 0 0 0 0
17-03-2020 16.2 (16:50) 1.9 (00:00) 9.1 10.56 (22:40) 5.56 (23:40) 1 0.6 0 0 0.4
16-03-2020 12.1 (00:00) 1.2 (00:00) 6.7 9.17 (17:30) 4.17 (17:50) 3.8 2.2 0 1 0.6
15-03-2020 20.1 (15:30) 7.4 (00:00) 13.8 8.61 (23:00) 3.89 (23:00) 0.2 0 0 0 0.2
14-03-2020 20.9 (15:10) 7.6 (00:00) 14.2 4.17 (12:50) 1.94 (13:10) 0 0 0 0 0
13-03-2020 23.5 (15:50) 6.8 (06:40) 15.2 6.39 (15:30) 3.61 (18:40) 0 0 0 0 0
12-03-2020 25.4 (16:00) 9.6 (00:00) 17.5 6.67 (14:10) 4.17 (16:10) 0 0 0 0 0
11-03-2020 28.1 (16:00) 7.9 (00:00) 18 5.56 (16:10) 2.78 (15:00) 0 0 0 0 0
10-03-2020 24.2 (16:40) 4.7 (00:00) 14.5 6.67 (14:10) 3.61 (10:50) 0 0 0 0 0
09-03-2020 20.3 (16:40) 6.1 (00:00) 13.2 6.67 (15:50) 3.61 (14:40) 0 0 0 0 0
08-03-2020 20 (15:20) 2.2 (00:00) 11.1 8.61 (16:00) 4.72 (14:00) 0 0 0 0 0
07-03-2020 -- (--) -- (--) -- -- (--) -- (--) -- -- 0 0 0
06-03-2020 13.5 (16:10) 3.5 (00:00) 8.5 9.17 (15:20) 3.89 (11:30) 0 0 0 0 0
05-03-2020 14.5 (16:00) 4.7 (00:00) 9.6 11.39 (13:20) 5 (13:20) 1.8 0 0 1.8 0
04-03-2020 15.1 (15:40) 6.3 (00:00) 10.7 6.94 (14:50) 3.33 (14:00) 0.4 0 0.2 0.2 0

Gráficas

Temp. máximas Temp. mínimas Temp. medias Precipitaciones Rachas de viento máximas Velocidades máximas media en intervalos de 10 minutos

Datos horarios

Fecha y hora oficial Temperatura (ºC) Velocidad del viento (km/h) Dirección del viento Racha (km/h) Dirección de racha Precipitación (mm) Presión (hPa) Tendencia (hPa) Humedad (%)
2020-04-02 23:00:00 -- -- -- -- -- -- -- -- --
2020-04-02 22:00:00 -- -- -- -- -- -- -- -- --
2020-04-02 21:00:00 6.1 0 Calma 4 Nordeste 0.2 -- -- 92
2020-04-02 20:00:00 7.5 2 Oeste 6 Nordeste 0 -- -- 92
2020-04-02 19:00:00 8.4 2 Nordeste 15 Sudoeste 2 -- -- 87
2020-04-02 18:00:00 10.5 8 Sudoeste 13 Sudoeste 0 -- -- 84
2020-04-02 17:00:00 10.5 4 Oeste 14 Noroeste 0 -- -- 79
2020-04-02 16:00:00 9.4 3 Noroeste 7 Sudoeste 0 -- -- 84
2020-04-02 15:00:00 8 3 Sudoeste 13 Este 0.4 -- -- 84
2020-04-02 14:00:00 7.2 4 Sudeste 12 Este 0.4 -- -- 86
2020-04-02 13:00:00 7.1 0 Calma 16 Nordeste 0 -- -- 87
2020-04-02 12:00:00 5.6 5 Norte 16 Norte 2.4 -- -- 91
2020-04-02 11:00:00 5 5 Este 11 Este 2.4 -- -- 90
2020-04-02 10:00:00 5.3 0 Calma 4 Noroeste 1.6 -- -- 92
2020-04-02 09:00:00 5 3 Noroeste 5 Noroeste 1.2 -- -- 93
2020-04-02 08:00:00 5 2 Noroeste 5 Noroeste 0.6 -- -- 93
2020-04-02 07:00:00 5 4 Nordeste 12 Nordeste 4.2 -- -- 89
2020-04-02 06:00:00 6.2 4 Sur 12 Sudeste 1.8 -- -- 94
2020-04-02 05:00:00 6.3 2 Sudoeste 4 Sudoeste 0.2 -- -- 94
2020-04-02 04:00:00 5.8 0 Calma 2 Noroeste 0 -- -- 94
2020-04-02 03:00:00 5.2 0 Calma 5 Oeste 0 -- -- 96
2020-04-02 02:00:00 4 0 Calma 4 Este 0 -- -- 94
2020-04-02 01:00:00 4.1 0 Calma 3 Nordeste 0 -- -- 92
2020-04-02 00:00:00 5.1 0 Calma 2 Noroeste 0 -- -- 92
2020-04-01 23:00:00 5.3 0 Calma 6 Sur 0 -- -- 88
2020-04-01 22:00:00 7.7 5 Sudoeste 22 Sudoeste 0 -- -- 78
2020-04-01 21:00:00 9.6 13 Sudoeste 27 Sudoeste 0 -- -- 69
2020-04-01 20:00:00 11.2 8 Sudoeste 24 Oeste 0 -- -- 59
2020-04-01 19:00:00 12.2 10 Sudoeste 17 Sur 0 -- -- 55
2020-04-01 18:00:00 12.6 9 Sur 25 Sudoeste 0 -- -- 54
2020-04-01 17:00:00 13.5 12 Sudoeste 28 Sudoeste 0 -- -- 58
2020-04-01 16:00:00 12.3 10 Sur 27 Sudoeste 0 -- -- 66
2020-04-01 15:00:00 12.6 14 Sudoeste 30 Sur 0 -- -- 60
2020-04-01 14:00:00 11.5 8 Sur 21 Sudeste 0 -- -- 70
2020-04-01 13:00:00 10.5 13 Sudoeste 19 Sudoeste 0 -- -- 71
2020-04-01 12:00:00 9.6 5 Sur 17 Sur 0 -- -- 80
2020-04-01 11:00:00 8.5 4 Sudeste 10 Sur 0 -- -- 89
2020-04-01 10:00:00 7.8 3 Sur 5 Sur 0 -- -- 93
2020-04-01 09:00:00 7.3 0 Calma 2 Sudoeste 0 -- -- 93
2020-04-01 08:00:00 7.1 0 Calma 6 Nordeste 0 -- -- 93
2020-04-01 07:00:00 7.1 2 Sur 8 Sudoeste 0 -- -- 93
2020-04-01 06:00:00 7.1 3 Este 5 Sudeste 0 -- -- 93
2020-04-01 05:00:00 7.6 0 Calma 15 Sur 0 -- -- 92
2020-04-01 04:00:00 8.1 7 Sur 20 Sudeste 0 -- -- 91
2020-04-01 03:00:00 8.6 9 Sur 15 Sur 0 -- -- 94
2020-04-01 02:00:00 8.8 10 Sudoeste 18 Sudoeste 0 -- -- 93
2020-04-01 01:00:00 9.1 9 Sudoeste 23 Oeste 0 -- -- 91
2020-04-01 00:00:00 9.6 10 Sur 21 Sur 1.8 -- -- 92
2020-03-31 23:00:00 9.9 0 Calma 17 Sudeste 0 -- -- 92
2020-03-31 22:00:00 9.7 6 Sur 17 Noroeste 0.4 -- -- 94
2020-03-31 21:00:00 9.7 4 Sudeste 16 Sudeste 0 -- -- 92
2020-03-31 20:00:00 10.6 4 Sur 14 Sur 0.2 -- -- 90
2020-03-31 19:00:00 10.8 2 Este 17 Este 0 -- -- 90
2020-03-31 18:00:00 10.9 8 Sudeste 27 Sur 1.6 -- -- 90
2020-03-31 17:00:00 10.6 5 Sur 18 Sudeste 1 -- -- 90
2020-03-31 16:00:00 11.7 8 Sudeste 14 Sudeste 0 -- -- 86
2020-03-31 15:00:00 10.2 6 Sur 27 Sudeste 2.2 -- -- 90
2020-03-31 14:00:00 10.5 6 Sudoeste 26 Sur 0.2 -- -- 87
2020-03-31 13:00:00 9.9 8 Sur 31 Sur 0.2 -- -- 89
2020-03-31 12:00:00 9.6 10 Sur 27 Sudeste 0 -- -- 92
2020-03-31 11:00:00 8.5 8 Sur 22 Sur 0.4 -- -- 94
2020-03-31 10:00:00 7.9 6 Sur 27 Este 0 -- -- 94
2020-03-31 09:00:00 7.7 9 Sudeste 32 Sudeste 1.2 -- -- 91
2020-03-31 08:00:00 7.5 8 Sur 24 Sudeste 0.4 -- -- 91
2020-03-31 07:00:00 7.6 10 Sudeste 21 Sudeste 0 -- -- 90
2020-03-31 06:00:00 7.3 8 Sudeste 18 Sudeste 0.8 -- -- 90
2020-03-31 05:00:00 7.6 6 Sur 25 Sudeste 2.6 -- -- 92
2020-03-31 04:00:00 7.8 9 Sudeste 21 Sudeste 0.2 -- -- 90
2020-03-31 03:00:00 7.8 7 Sudeste 21 Sur 0.4 -- -- 90
2020-03-31 02:00:00 7.6 5 Sur 11 Sudeste 0.6 -- -- 92
2020-03-31 01:00:00 7.7 0 Calma 7 Norte 0 -- -- 92
2020-03-31 00:00:00 7.8 3 Noroeste 7 Noroeste 0 -- -- 92
2020-03-30 23:00:00 7.9 0 Calma 6 Sudoeste 0 -- -- 90
2020-03-30 22:00:00 8 2 Nordeste 19 Noroeste 1 -- -- 90
2020-03-30 21:00:00 8.8 7 Sudoeste 44 Sudoeste 0.2 -- -- 81
2020-03-30 20:00:00 10.7 4 Sudoeste 13 Oeste 0 -- -- 84
2020-03-30 19:00:00 10.9 3 Sudeste 13 Oeste 0.2 -- -- 84
2020-03-30 18:00:00 11.2 7 Oeste 14 Noroeste 0 -- -- 77
2020-03-30 17:00:00 12.2 6 Oeste 17 Oeste 0 -- -- 77
2020-03-30 16:00:00 13.6 3 Sur 14 Sudoeste 0 -- -- 59
2020-03-30 15:00:00 14.5 5 Este 13 Sudoeste 0 -- -- 63
2020-03-30 14:00:00 11.8 4 Sudeste 12 Sur 0 -- -- 81
2020-03-30 13:00:00 12.5 4 Sur 9 Sur 0 -- -- 69
2020-03-30 12:00:00 11.7 5 Sudeste 13 Sudeste 0 -- -- 77
2020-03-30 11:00:00 10.4 7 Sudeste 10 Sudeste 0 -- -- 79
2020-03-30 10:00:00 9 0 Calma 4 Sudoeste 0 -- -- 84
2020-03-30 09:00:00 5.3 0 Calma 3 Este 0 -- -- 93
2020-03-30 08:00:00 5 0 Calma 3 Este 0 -- -- 92
2020-03-30 07:00:00 6 0 Calma 3 Nordeste 0 -- -- 91
2020-03-30 06:00:00 6.3 0 Calma 3 Nordeste 0 -- -- 90
2020-03-30 05:00:00 7.4 0 Calma 4 Nordeste 0 -- -- 85
2020-03-30 04:00:00 8.5 0 Calma 3 Norte 0 -- -- 84
2020-03-30 03:00:00 8.3 0 Calma 9 Nordeste 0 -- -- 84
2020-03-30 02:00:00 8.2 2 Este 4 Nordeste 0 -- -- 84
2020-03-30 01:00:00 7.6 0 Calma 3 Este 0 -- -- 85
2020-03-30 00:00:00 8.2 0 Calma 4 Nordeste 0 -- -- 82
2020-03-29 23:00:00 9.1 2 Nordeste 5 Nordeste 0 -- -- 77
2020-03-29 22:00:00 9.6 0 Calma 5 Nordeste 0 -- -- 75
2020-03-29 21:00:00 11 0 Calma 4 Nordeste 0 -- -- 64
2020-03-29 20:00:00 14.4 0 Calma 11 Oeste 0 -- -- 51
2020-03-29 19:00:00 15.3 6 Oeste 15 Sudoeste 0 -- -- 45
2020-03-29 18:00:00 15.9 9 Sudoeste 17 Sudoeste 0 -- -- 46
2020-03-29 17:00:00 16.9 4 Nordeste 12 Nordeste 0 -- -- 46
2020-03-29 16:00:00 15.8 2 Nordeste 8 Oeste 0 -- -- 49
2020-03-29 15:00:00 15.7 4 Sudeste 23 Sudoeste 0 -- -- 50
2020-03-29 14:00:00 14.8 10 Sudoeste 19 Sudoeste 0 -- -- 53
2020-03-29 13:00:00 14.2 6 Sudeste 13 Sur 0 -- -- 64
2020-03-29 12:00:00 11.5 5 Sur 12 Sudeste 0 -- -- 76
2020-03-29 11:00:00 10.6 4 Sur 8 Sur 0 -- -- 80
2020-03-29 10:00:00 7.7 3 Sudoeste 6 Sudoeste 0 -- -- 90
2020-03-29 09:00:00 6.4 0 Calma 2 Sur 0 -- -- 90
2020-03-29 08:00:00 5.4 0 Calma 2 Nordeste 0 -- -- 89
2020-03-29 07:00:00 4.2 0 Calma 2 Nordeste 0 -- -- 89
2020-03-29 06:00:00 3.6 0 Calma 3 Nordeste 0 -- -- 87
2020-03-29 05:00:00 3.5 0 Calma 2 Este 0 -- -- 87
2020-03-29 03:00:00 3.6 0 Calma 4 Nordeste 0 -- -- 81
2020-03-29 01:00:00 4.3 0 Calma 5 Este 0 -- -- 78
2020-03-29 00:00:00 5.4 2 Sudeste 7 Norte 0 -- -- 73
2020-03-28 23:00:00 8 0 Calma 11 Norte 0 -- -- 61
2020-03-28 22:00:00 9.9 5 Nordeste 19 Nordeste 0 -- -- 51
2020-03-28 21:00:00 8.7 3 Nordeste 10 Norte 0 -- -- 60
2020-03-28 20:00:00 10.5 0 Calma 5 Este 0 -- -- 62
2020-03-28 19:00:00 14 3 Nordeste 9 Nordeste 0 -- -- 49
2020-03-28 18:00:00 14.3 4 Oeste 5 Oeste 0 -- -- 50
2020-03-28 17:00:00 14.4 3 Nordeste 15 Este 0 -- -- 48
2020-03-28 16:00:00 16.6 5 Sudoeste 17 Sudoeste 0 -- -- 40
2020-03-28 15:00:00 14.1 6 Sur 12 Este 0 -- -- 51
2020-03-28 14:00:00 13.6 6 Nordeste 12 Este 0 -- -- 51
2020-03-28 13:00:00 12.8 5 Nordeste 11 Sudoeste 0 -- -- 53
2020-03-28 12:00:00 12.7 5 Sudeste 16 Sur 0 -- -- 54
2020-03-28 11:00:00 11.6 5 Sur 12 Sur 0 -- -- 64
2020-03-28 10:00:00 10.2 4 Sur 9 Noroeste 0 -- -- 68
2020-03-28 09:00:00 6.1 5 Noroeste 18 Norte 0 -- -- 83
2020-03-28 08:00:00 1.8 8 Norte 19 Norte 0 -- -- 93
2020-03-28 07:00:00 1.5 9 Norte 18 Norte 0 -- -- 93
2020-03-28 06:00:00 1.5 7 Norte 17 Norte 0 -- -- 92
2020-03-28 05:00:00 1.8 7 Noroeste 19 Norte 0 -- -- 91
2020-03-28 04:00:00 2 5 Norte 21 Norte 0 -- -- 89
2020-03-28 03:00:00 2.4 9 Norte 18 Norte 0 -- -- 88
2020-03-28 02:00:00 2.4 7 Norte 14 Norte 0 -- -- 88
2020-03-28 01:00:00 3.1 4 Noroeste 14 Norte 0 -- -- 85
2020-03-28 00:00:00 3.8 6 Noroeste 17 Nordeste 0 -- -- 83
2020-03-27 23:00:00 4.1 5 Norte 19 Norte 0 -- -- 81
2020-03-27 22:00:00 4.6 5 Norte 25 Nordeste 0 -- -- 80
2020-03-27 21:00:00 5.4 8 Norte 26 Nordeste 0 -- -- 78
2020-03-27 20:00:00 6.2 6 Nordeste 22 Este 0 -- -- 75
2020-03-27 19:00:00 8.5 3 Este 20 Nordeste 0 -- -- 68
2020-03-27 18:00:00 9.9 10 Nordeste 23 Norte 0 -- -- 63
2020-03-27 17:00:00 10.5 10 Nordeste 26 Nordeste 0 -- -- 64
2020-03-27 16:00:00 11.3 9 Nordeste 21 Nordeste 0 -- -- 63
2020-03-27 15:00:00 12.2 7 Nordeste 19 Este 0 -- -- 61
2020-03-27 14:00:00 12.7 6 Sudeste 15 Sudeste 0 -- -- 53
2020-03-27 13:00:00 11.8 6 Sudoeste 18 Sudoeste 0 -- -- 59
2020-03-27 12:00:00 10.3 8 Sur 17 Sur 0 -- -- 63
2020-03-27 11:00:00 10.7 9 Sudeste 20 Sudeste 0 -- -- 69
2020-03-27 10:00:00 9.9 9 Sudeste 19 Sudeste 0 -- -- 78
2020-03-27 09:00:00 7.2 0 Calma 8 Este 0 -- -- 94
2020-03-27 08:00:00 5.2 0 Calma 4 Nordeste 0 -- -- 95
2020-03-27 07:00:00 4.6 0 Calma 6 Este 0 -- -- 93
2020-03-27 06:00:00 4.7 0 Calma 5 Norte 0 -- -- 91
2020-03-27 05:00:00 5.1 0 Calma 5 Este 0 -- -- 93
2020-03-27 04:00:00 4.9 0 Calma 4 Nordeste 0 -- -- 91
2020-03-27 03:00:00 5.6 0 Calma 3 Nordeste 0 -- -- 87
2020-03-27 02:00:00 6.9 0 Calma 9 Nordeste 0 -- -- 83
2020-03-27 01:00:00 8.1 3 Este 9 Norte 0 -- -- 78
2020-03-27 00:00:00 8.8 0 Calma 9 Nordeste 0 -- -- 76
2020-03-26 23:00:00 8.2 0 Calma 9 Nordeste 0 -- -- 74
2020-03-26 22:00:00 9.9 5 Nordeste 11 Norte 0 -- -- 61
2020-03-26 21:00:00 10 7 Nordeste 10 Nordeste 0 -- -- 59
2020-03-26 20:00:00 11.6 5 Nordeste 10 Nordeste 0 -- -- 54
2020-03-26 19:00:00 15.8 3 Oeste 26 Oeste 0 -- -- 46
2020-03-26 18:00:00 17.1 10 Oeste 26 Sudoeste 0 -- -- 40
2020-03-26 17:00:00 17.7 12 Oeste 33 Oeste 0 -- -- 35
2020-03-26 16:00:00 18 12 Oeste 30 Sudoeste 0 -- -- 35
2020-03-26 15:00:00 17.2 21 Sudoeste 39 Sudoeste 0 -- -- 40
2020-03-26 14:00:00 16.6 17 Sudoeste 38 Sudoeste 0 -- -- 49
2020-03-26 13:00:00 16.3 14 Oeste 38 Sudoeste 0 -- -- 53
2020-03-26 12:00:00 16.3 6 Oeste 20 Sudoeste 0 -- -- 52
2020-03-26 11:00:00 15.4 5 Oeste 17 Oeste 0 -- -- 58
2020-03-26 10:00:00 14.3 6 Noroeste 18 Nordeste 0 -- -- 63
2020-03-26 09:00:00 11.9 4 Sur 7 Sur 0 -- -- 78
2020-03-26 08:00:00 7.9 0 Calma 5 Sudoeste 0 -- -- 91
2020-03-26 07:00:00 7 0 Calma 5 Sudoeste 0 -- -- 91
2020-03-26 06:00:00 6.5 0 Calma 5 Nordeste 0 -- -- 87
2020-03-26 05:00:00 8.8 2 Este 12 Sudoeste 0 -- -- 82
2020-03-26 04:00:00 9.9 5 Sudoeste 18 Sudoeste 0 -- -- 74
2020-03-26 03:00:00 8.7 4 Nordeste 10 Este 0 -- -- 81
2020-03-26 02:00:00 8.1 3 Nordeste 5 Nordeste 0 -- -- 85
2020-03-26 01:00:00 8.3 0 Calma 5 Este 0 -- -- 86
2020-03-26 00:00:00 7.5 2 Nordeste 4 Sudoeste 0 -- -- 86
2020-03-25 23:00:00 7.4 0 Calma 4 Nordeste 0 -- -- 84
2020-03-25 22:00:00 8 3 Nordeste 6 Norte 0 -- -- 74
2020-03-25 21:00:00 10.7 4 Norte 8 Norte 0 -- -- 62
2020-03-25 20:00:00 11.2 5 Norte 8 Norte 0 -- -- 59
2020-03-25 19:00:00 14.8 2 Oeste 12 Oeste 0 -- -- 49
2020-03-25 18:00:00 15.7 5 Sudoeste 12 Noroeste 0 -- -- 45
2020-03-25 17:00:00 15.7 6 Noroeste 26 Oeste 0 -- -- 43
2020-03-25 16:00:00 16 4 Nordeste 23 Nordeste 0 -- -- 42
2020-03-25 15:00:00 16.3 8 Nordeste 22 Noroeste 0 -- -- 40
2020-03-25 14:00:00 16.2 7 Oeste 21 Noroeste 0 -- -- 46
2020-03-25 13:00:00 14.6 5 Norte 22 Este 0 -- -- 47
2020-03-25 12:00:00 14.3 9 Nordeste 31 Este 0 -- -- 49
2020-03-25 11:00:00 14.1 6 Nordeste 19 Nordeste 0 -- -- 50
2020-03-25 10:00:00 12.7 10 Este 23 Este 0 -- -- 51
2020-03-25 09:00:00 11.2 5 Nordeste 13 Norte 0 -- -- 55
2020-03-25 08:00:00 6.6 4 Norte 12 Norte 0 -- -- 78
2020-03-25 07:00:00 6.5 8 Norte 17 Noroeste 0 -- -- 79
2020-03-25 06:00:00 6.6 5 Norte 12 Norte 0 -- -- 79
2020-03-25 05:00:00 7.1 5 Noroeste 16 Norte 0 -- -- 79
2020-03-25 04:00:00 7.8 7 Norte 15 Norte 0 -- -- 76
2020-03-25 03:00:00 7.6 6 Noroeste 19 Norte 0 -- -- 78
2020-03-25 02:00:00 7.4 4 Noroeste 19 Nordeste 0 -- -- 79
2020-03-25 01:00:00 8.3 10 Nordeste 32 Nordeste 0 -- -- 76
2020-03-25 00:00:00 8.3 13 Nordeste 32 Este 0 -- -- 77
2020-03-24 23:00:00 8.9 12 Nordeste 34 Este 0 -- -- 75
2020-03-24 22:00:00 9.4 15 Nordeste 36 Nordeste 0 -- -- 74
2020-03-24 21:00:00 9.8 18 Nordeste 38 Este 0 -- -- 73
2020-03-24 20:00:00 10.7 22 Nordeste 37 Nordeste 0 -- -- 70
2020-03-24 19:00:00 12.5 17 Nordeste 34 Nordeste 0 -- -- 65
2020-03-24 18:00:00 14.2 14 Nordeste 35 Nordeste 0 -- -- 60
2020-03-24 17:00:00 15.1 14 Nordeste 33 Nordeste 0 -- -- 57
2020-03-24 16:00:00 16.6 9 Nordeste 37 Nordeste 0 -- -- 54
2020-03-24 15:00:00 15.7 15 Nordeste 32 Nordeste 0 -- -- 56
2020-03-24 14:00:00 15.3 12 Este 37 Norte 0 -- -- 59
2020-03-24 13:00:00 14.1 11 Nordeste 28 Nordeste -- -- -- 59
2020-03-24 12:00:00 13.1 8 Este 42 Norte 0 -- -- 64
2020-03-24 11:00:00 12.8 8 Este 32 Este 0 -- -- 62
2020-03-24 10:00:00 11.1 13 Nordeste 50 Nordeste 0.2 -- -- 69
2020-03-24 09:00:00 9.9 19 Nordeste 54 Este 0 -- -- 72
2020-03-24 08:00:00 8 21 Nordeste 46 Nordeste 0 -- -- 79
2020-03-24 07:00:00 7.9 16 Nordeste 37 Este 0 -- -- 82
2020-03-24 06:00:00 8 14 Nordeste 33 Nordeste 0 -- -- 81
2020-03-24 05:00:00 7.8 8 Nordeste 26 Nordeste 0 -- -- 82
2020-03-24 04:00:00 7.7 11 Nordeste 27 Nordeste 0 -- -- 83
2020-03-24 03:00:00 7.9 7 Nordeste 17 Nordeste 0 -- -- 84
2020-03-24 02:00:00 8 5 Nordeste 20 Nordeste 0 -- -- 85
2020-03-24 01:00:00 8.1 3 Norte 29 Nordeste 0 -- -- 86
2020-03-24 00:00:00 8.3 6 Nordeste 15 Este 1.2 -- -- 88
2020-03-23 23:00:00 8.8 8 Nordeste 21 Nordeste 0.6 -- -- 82
2020-03-23 22:00:00 8.6 0 Calma 7 Noroeste 0.6 -- -- 89
2020-03-23 21:00:00 8.7 2 Norte 8 Nordeste 1.4 -- -- 88
2020-03-23 20:00:00 9.4 3 Sudoeste 20 Este 1 -- -- 81
2020-03-23 19:00:00 11.5 8 Sur 33 Nordeste 0 -- -- 68
2020-03-23 18:00:00 14.3 8 Este 18 Sudeste 0 -- -- 47
2020-03-23 17:00:00 14.7 5 Este 23 Nordeste 0 -- -- 45
2020-03-23 16:00:00 14.8 9 Sudeste 21 Sudeste 0 -- -- 46
2020-03-23 15:00:00 13.6 8 Este 22 Nordeste 0 -- -- 51
2020-03-23 14:00:00 13.5 5 Este 18 Este 0 -- -- 58
2020-03-23 13:00:00 12.3 8 Este 17 Sudeste 0 -- -- 59
2020-03-23 12:00:00 11.7 6 Sudeste 21 Este 0 -- -- 61
2020-03-23 11:00:00 10.6 6 Nordeste 16 Nordeste 0 -- -- 72
2020-03-23 10:00:00 10.2 3 Sudeste 6 Este 0 -- -- 77
2020-03-23 09:00:00 8.7 2 Oeste 11 Noroeste 0 -- -- 91
2020-03-23 08:00:00 4.9 3 Norte 9 Noroeste 0 -- -- 97
2020-03-23 07:00:00 5 2 Norte 8 Norte 0 -- -- 96
2020-03-23 06:00:00 4.5 0 Calma 8 Norte 0 -- -- 96
2020-03-23 05:00:00 4.1 0 Calma 3 Este 0 -- -- 95
2020-03-23 04:00:00 4.7 0 Calma 4 Noroeste 0 -- -- 95
2020-03-23 03:00:00 5.2 0 Calma 5 Nordeste 0 -- -- 95
2020-03-23 02:00:00 5 0 Calma 6 Norte 0 -- -- 93
2020-03-23 01:00:00 6.3 0 Calma 4 Noroeste 0.4 -- -- 94
2020-03-23 00:00:00 6.3 0 Calma 6 Norte 1 -- -- 93
2020-03-22 23:00:00 6.3 0 Calma 9 Este 3.2 -- -- 93
2020-03-22 22:00:00 6.3 5 Nordeste 11 Nordeste 7.2 -- -- 92
2020-03-22 21:00:00 7.2 0 Calma 6 Noroeste 0 -- -- 94
2020-03-22 20:00:00 7.3 0 Calma 5 Este 0 -- -- 90
2020-03-22 19:00:00 8.9 2 Sudeste 8 Sur 0 -- -- 88
2020-03-22 18:00:00 9.5 4 Sur 7 Oeste 0.2 -- -- 82
2020-03-22 17:00:00 8.1 4 Sudoeste 12 Nordeste 0.2 -- -- 86
2020-03-22 16:00:00 8.3 7 Nordeste 27 Nordeste 0.6 -- -- 87
2020-03-22 15:00:00 9.2 8 Nordeste 19 Nordeste 1 -- -- 82
2020-03-22 14:00:00 9.7 0 Calma 4 Oeste 0 -- -- 82
2020-03-22 13:00:00 9 0 Calma 6 Sur 1.6 -- -- 79
2020-03-22 12:00:00 9.3 5 Este 13 Nordeste 1.4 -- -- 80
2020-03-22 11:00:00 9.9 3 Este 15 Este 0 -- -- 74
2020-03-22 10:00:00 9.3 6 Nordeste 15 Nordeste 0 -- -- 77
2020-03-22 09:00:00 6.2 3 Noroeste 10 Norte 0 -- -- 91
2020-03-22 08:00:00 4.4 4 Nordeste 13 Noroeste 0 -- -- 96
2020-03-22 07:00:00 2.7 4 Nordeste 8 Norte 0 -- -- 97
2020-03-22 06:00:00 2.4 0 Calma 5 Nordeste 0 -- -- 95
2020-03-22 05:00:00 2.6 0 Calma 3 Este 0 -- -- 94
2020-03-22 04:00:00 3.7 0 Calma 5 Nordeste 0 -- -- 95
2020-03-22 03:00:00 3.9 0 Calma 4 Nordeste 0 -- -- 95
2020-03-22 02:00:00 5 0 Calma 2 Este 0 -- -- 93
2020-03-22 01:00:00 5.3 0 Calma 4 Oeste 0 -- -- 93
2020-03-22 00:00:00 5.7 0 Calma 5 Sur 0 -- -- 93
2020-03-21 23:00:00 5.8 4 Este 16 Sudoeste 1.6 -- -- 92
2020-03-21 22:00:00 6.2 11 Sudoeste 33 Sudoeste 0 -- -- 86
2020-03-21 21:00:00 7.4 4 Sur 14 Nordeste 0.2 -- -- 88
2020-03-21 20:00:00 7.3 2 Sudoeste 8 Este 0.2 -- -- 89
2020-03-21 19:00:00 7.8 4 Sudeste 21 Sudoeste 0.8 -- -- 91
2020-03-21 18:00:00 8.6 9 Sudeste 22 Sudoeste 1 -- -- 87
2020-03-21 17:00:00 9.9 0 Calma 16 Sudoeste 0.6 -- -- 79
2020-03-21 16:00:00 11.4 6 Sur 18 Sur 0 -- -- 68
2020-03-21 15:00:00 10.9 7 Sur 16 Sur 0 -- -- 70
2020-03-21 14:00:00 10.9 8 Sudeste 16 Sur 0 -- -- 74
2020-03-21 13:00:00 8.8 7 Sur 15 Sur 0 -- -- 81
2020-03-21 12:00:00 7.8 8 Sur 15 Sur 0 -- -- 87
2020-03-21 11:00:00 6.9 4 Sur 9 Sur 0 -- -- 92
2020-03-21 10:00:00 6.4 6 Sur 10 Sur 0.2 -- -- 94
2020-03-21 09:00:00 6.1 2 Sudeste 5 Sudoeste 0.4 -- -- 91
2020-03-21 08:00:00 5.6 2 Nordeste 28 Sudoeste 2 -- -- 90
2020-03-21 07:00:00 6.3 11 Sudoeste 31 Sudoeste 3.2 -- -- 86
2020-03-21 06:00:00 7.5 15 Sudoeste 40 Sudoeste 3.2 -- -- 84
2020-03-21 05:00:00 9.6 4 Sur 15 Sur 2 -- -- 88
2020-03-21 04:00:00 10.4 4 Sur 10 Sudeste 0 -- -- 82
2020-03-21 03:00:00 10 0 Calma 6 Sudoeste 0 -- -- 87
2020-03-21 02:00:00 9.8 0 Calma 5 Nordeste 0 -- -- 87
2020-03-21 01:00:00 9.5 0 Calma 10 Este 0 -- -- 86
2020-03-21 00:00:00 8.7 5 Sudeste 12 Sudeste 0 -- -- 89
2020-03-20 23:00:00 8.5 0 Calma 3 Nordeste 0 -- -- 85
2020-03-20 22:00:00 8.9 0 Calma 3 Este 0 -- -- 84
2020-03-20 21:00:00 9.8 0 Calma 2 Nordeste 0 -- -- 80
2020-03-20 20:00:00 11.5 0 Calma 3 Nordeste 0 -- -- 73
2020-03-20 19:00:00 15.1 2 Sudoeste 8 Sur 0 -- -- 59
2020-03-20 18:00:00 15.3 5 Sur 14 Sudoeste 0 -- -- 56
2020-03-20 17:00:00 16.1 5 Sur 17 Sudeste 0 -- -- 53
2020-03-20 16:00:00 16.4 6 Sur 21 Sur 0 -- -- 51
2020-03-20 15:00:00 17.8 10 Sur 23 Sudeste 0 -- -- 47
2020-03-20 14:00:00 16.8 9 Sur 19 Sudeste 0 -- -- 50
2020-03-20 13:00:00 16.3 9 Sur 19 Sudeste 0 -- -- 49
2020-03-20 12:00:00 15.2 8 Sur 18 Sur 0 -- -- 56
2020-03-20 11:00:00 13.5 9 Sur 18 Sudeste 0 -- -- 65
2020-03-20 10:00:00 11.7 2 Sudoeste 8 Sur 0 -- -- 70
2020-03-20 09:00:00 9.5 0 Calma 3 Sur 0 -- -- 80
2020-03-20 08:00:00 7.7 0 Calma 8 Este 0 -- -- 84
2020-03-20 07:00:00 7.6 2 Nordeste 6 Norte 0 -- -- 88
2020-03-20 06:00:00 6.8 0 Calma 3 Este 0 -- -- 91
2020-03-20 05:00:00 6.8 0 Calma 5 Nordeste 0 -- -- 89
2020-03-20 04:00:00 6.9 0 Calma 6 Este 0 -- -- 88
2020-03-20 03:00:00 7.2 2 Nordeste 4 Este 0 -- -- 88
2020-03-20 02:00:00 8.2 0 Calma 4 Sudeste 0 -- -- 87
2020-03-20 01:00:00 7.9 0 Calma 5 Nordeste 0 -- -- 88
2020-03-20 00:00:00 8.1 2 Nordeste 4 Nordeste 0 -- -- 87
2020-03-19 23:00:00 8.6 2 Nordeste 8 Este 0 -- -- 84
2020-03-19 22:00:00 9.6 0 Calma 4 Nordeste 0 -- -- 80
2020-03-19 21:00:00 10.8 0 Calma 3 Este 0 -- -- 78
2020-03-19 20:00:00 12.2 0 Calma 4 Nordeste 0 -- -- 75
2020-03-19 19:00:00 15 0 Calma 7 Sudoeste 0 -- -- 63
2020-03-19 18:00:00 15.8 4 Sudoeste 16 Sur 0 -- -- 57
2020-03-19 17:00:00 16.6 8 Sur 18 Sur 0 -- -- 52
2020-03-19 16:00:00 17.3 8 Sur 19 Sur 0 -- -- 51
2020-03-19 15:00:00 18.2 7 Sudeste 16 Sudoeste 0 -- -- 48
2020-03-19 14:00:00 16.3 4 Sudeste 21 Sudoeste 0 -- -- 50
2020-03-19 13:00:00 16.3 12 Sur 23 Sur 0 -- -- 53
2020-03-19 12:00:00 15.6 10 Sur 21 Sur 0 -- -- 56
2020-03-19 11:00:00 14.4 9 Sur 17 Sur 0 -- -- 60
2020-03-19 10:00:00 12.5 2 Sudoeste 5 Sudoeste 0 -- -- 69
2020-03-19 09:00:00 8 0 Calma 5 Sudoeste 0 -- -- 89
2020-03-19 08:00:00 5.4 0 Calma 3 Sudeste 0 -- -- 92
2020-03-19 07:00:00 5.2 0 Calma 5 Nordeste 0 -- -- 90
2020-03-19 06:00:00 5.5 0 Calma 6 Nordeste 0 -- -- 90
2020-03-19 05:00:00 5.8 3 Nordeste 6 Nordeste 0 -- -- 89
2020-03-19 04:00:00 6.5 3 Nordeste 6 Nordeste 0 -- -- 88
2020-03-19 03:00:00 6.8 3 Nordeste 7 Nordeste 0 -- -- 86
2020-03-19 02:00:00 7.4 0 Calma 5 Nordeste 0 -- -- 83
2020-03-19 01:00:00 8.7 0 Calma 6 Sudeste 0 -- -- 78
2020-03-19 00:00:00 10.3 2 Nordeste 15 Nordeste 0 -- -- 72
2020-03-18 23:00:00 12 5 Nordeste 15 Nordeste 0 -- -- 65
2020-03-18 22:00:00 13.1 8 Nordeste 24 Norte 0 -- -- 62
2020-03-18 21:00:00 13.4 5 Nordeste 19 Nordeste 0 -- -- 61
2020-03-18 20:00:00 14 7 Nordeste 22 Nordeste 0 -- -- 58
2020-03-18 19:00:00 16.1 10 Nordeste 25 Nordeste 0 -- -- 52
2020-03-18 18:00:00 18.5 14 Nordeste 27 Nordeste 0 -- -- 45
2020-03-18 17:00:00 19.4 14 Nordeste 30 Nordeste 0 -- -- 42
2020-03-18 16:00:00 20.4 9 Este 21 Nordeste 0 -- -- 41
2020-03-18 15:00:00 19.7 11 Nordeste 30 Nordeste 0 -- -- 43
2020-03-18 14:00:00 19.5 12 Nordeste 25 Nordeste 0 -- -- 42
2020-03-18 13:00:00 18.9 11 Nordeste 31 Este 0 -- -- 45
2020-03-18 12:00:00 18.1 8 Nordeste 25 Nordeste 0 -- -- 45
2020-03-18 11:00:00 16.7 10 Este 22 Este 0 -- -- 52
2020-03-18 10:00:00 14.5 5 Este 19 Este 0 -- -- 58
2020-03-18 09:00:00 12.1 2 Sudoeste 32 Nordeste 0 -- -- 66
2020-03-18 08:00:00 10.5 11 Nordeste 35 Nordeste 0 -- -- 71
2020-03-18 07:00:00 10 17 Nordeste 31 Nordeste 0 -- -- 72
2020-03-18 06:00:00 10 15 Nordeste 37 Este 0 -- -- 73
2020-03-18 05:00:00 10.7 11 Nordeste 30 Este 0 -- -- 71
2020-03-18 04:00:00 10.6 10 Nordeste 29 Nordeste 0 -- -- 74
2020-03-18 03:00:00 11 14 Nordeste 28 Este 0 -- -- 74
2020-03-18 02:00:00 11.9 13 Nordeste 39 Nordeste 0 -- -- 74
2020-03-18 01:00:00 12.1 15 Nordeste 39 Nordeste 0 -- -- 74
2020-03-18 00:00:00 12.2 17 Nordeste 36 Nordeste 0 -- -- 77
2020-03-17 23:00:00 12.4 16 Nordeste 38 Este 0 -- -- 77
2020-03-17 22:00:00 12.7 12 Nordeste 28 Este 0 -- -- 73
2020-03-17 21:00:00 12.6 9 Nordeste 18 Nordeste 0 -- -- 70
2020-03-17 20:00:00 11.4 4 Norte 17 Nordeste 0.2 -- -- 77
2020-03-17 19:00:00 13.1 7 Nordeste 15 Nordeste 0.2 -- -- 63
2020-03-17 18:00:00 14.5 7 Este 25 Este 0 -- -- 54
2020-03-17 17:00:00 15.8 15 Este 33 Nordeste 0 -- -- 40
2020-03-17 16:00:00 16 11 Este 29 Este 0 -- -- 38
2020-03-17 15:00:00 15.2 9 Este 28 Sudeste 0 -- -- 37
2020-03-17 14:00:00 14.1 11 Este 27 Sudeste 0 -- -- 36
2020-03-17 13:00:00 13.6 7 Este 26 Sudeste 0 -- -- 45
2020-03-17 12:00:00 12 7 Este 23 Nordeste 0 -- -- 47
2020-03-17 11:00:00 10.4 4 Sudeste 16 Nordeste 0 -- -- 58
2020-03-17 10:00:00 9.1 5 Sur 13 Sur 0 -- -- 65
2020-03-17 09:00:00 5.6 0 Calma 5 Este 0 -- -- 86
2020-03-17 08:00:00 1.9 0 Calma 7 Sudeste 0 -- -- 92
2020-03-17 07:00:00 3 4 Sudeste 12 Este 0 -- -- 86
2020-03-17 06:00:00 3.9 0 Calma 8 Sudeste 0 -- -- 86
2020-03-17 05:00:00 4.6 0 Calma 22 Este 0.4 -- -- 87
2020-03-17 04:00:00 4.5 3 Noroeste 6 Noroeste 0 -- -- 91
2020-03-17 03:00:00 4.4 0 Calma 6 Sudeste 0 -- -- 90
2020-03-17 02:00:00 4.4 3 Sur 11 Sudeste 0.2 -- -- 87
2020-03-17 01:00:00 4.5 0 Calma 9 Sur 0 -- -- 86
2020-03-17 00:00:00 4.5 3 Sudeste 10 Este 0 -- -- 88
2020-03-16 23:00:00 4.2 2 Sur 10 Sudoeste 0 -- -- 90
2020-03-16 22:00:00 3.7 0 Calma 3 Oeste 0.2 -- -- 92
2020-03-16 21:00:00 3.7 0 Calma 5 Sur 0 -- -- 90
2020-03-16 20:00:00 3.8 2 Sudeste 11 Sudoeste 0.4 -- -- 90
2020-03-16 19:00:00 4.2 3 Sur 7 Nordeste 0 -- -- 88
2020-03-16 18:00:00 4.3 7 Oeste 33 Sudoeste 0.8 -- -- 83
2020-03-16 17:00:00 5.9 4 Sur 19 Oeste 0.2 -- -- 72
2020-03-16 16:00:00 6.7 6 Sur 20 Noroeste 0 -- -- 65
2020-03-16 15:00:00 6.4 5 Oeste 23 Sudoeste 0 -- -- 65
2020-03-16 14:00:00 5.5 13 Oeste 27 Oeste 0 -- -- 69
2020-03-16 13:00:00 4.8 8 Oeste 28 Oeste 0 -- -- 74
2020-03-16 12:00:00 4.4 9 Oeste 18 Oeste 0 -- -- 76
2020-03-16 11:00:00 3.9 6 Sudoeste 22 Sur 0 -- -- 77
2020-03-16 10:00:00 3.3 7 Sudoeste 15 Sudoeste 0 -- -- 79
2020-03-16 09:00:00 3.1 3 Noroeste 8 Oeste 0 -- -- 81
2020-03-16 08:00:00 1.6 2 Nordeste 6 Norte 0 -- -- 90
2020-03-16 07:00:00 1.8 3 Nordeste 10 Nordeste 0 -- -- 88
2020-03-16 06:00:00 3.5 4 Nordeste 17 Nordeste 0.2 -- -- 85
2020-03-16 05:00:00 3.7 4 Este 23 Oeste 0.6 -- -- 87
2020-03-16 04:00:00 5.9 5 Oeste 24 Oeste 1.4 -- -- 82
2020-03-16 03:00:00 8.4 8 Oeste 25 Oeste 0 -- -- 81
2020-03-16 02:00:00 9.6 4 Oeste 16 Oeste 0 -- -- 80
2020-03-16 01:00:00 10.5 6 Oeste 30 Oeste 0 -- -- 80
2020-03-16 00:00:00 12.1 5 Oeste 27 Oeste 0.2 -- -- 81
2020-03-15 23:00:00 14.2 14 Sudoeste 31 Sudoeste 0 -- -- 72
2020-03-15 22:00:00 14.8 12 Sudoeste 27 Oeste 0 -- -- 68
2020-03-15 21:00:00 15.3 5 Sur 14 Sudeste 0 -- -- 68
2020-03-15 20:00:00 15.7 4 Sur 23 Sur 0 -- -- 64
2020-03-15 19:00:00 16.2 10 Sur 20 Sur 0 -- -- 58
2020-03-15 18:00:00 17.8 12 Sur 27 Sur 0 -- -- 55
2020-03-15 17:00:00 19 12 Sur 23 Sur 0 -- -- 55
2020-03-15 16:00:00 20 14 Sur 25 Sudoeste 0 -- -- 52
2020-03-15 15:00:00 19.8 9 Sur 18 Sur 0 -- -- 52
2020-03-15 14:00:00 19 8 Sur 17 Sur 0 -- -- 61
2020-03-15 13:00:00 17.1 7 Sur 15 Sudeste 0 -- -- 71
2020-03-15 12:00:00 15.4 6 Sudeste 12 Sudeste 0 -- -- 74
2020-03-15 11:00:00 15.5 7 Sudeste 13 Sudeste 0 -- -- 74
2020-03-15 10:00:00 13.5 0 Calma 7 Sudeste 0 -- -- 86
2020-03-15 09:00:00 10 0 Calma 4 Nordeste 0 -- -- 97
2020-03-15 08:00:00 7.7 0 Calma 2 Nordeste 0 -- -- 96
2020-03-15 07:00:00 7.5 0 Calma 2 Este 0 -- -- 94
2020-03-15 06:00:00 7.8 0 Calma 0 Calma 0 -- -- 94
2020-03-15 05:00:00 8.2 0 Calma 2 Nordeste 0 -- -- 94
2020-03-15 04:00:00 8.5 0 Calma 3 Nordeste 0 -- -- 94
2020-03-15 03:00:00 8.7 0 Calma 2 Este 0 -- -- 92
2020-03-15 02:00:00 9 0 Calma 3 Este 0 -- -- 92
2020-03-15 01:00:00 9.6 0 Calma 2 Este 0 -- -- 91
2020-03-15 00:00:00 9.9 0 Calma 4 Este 0 -- -- 88
2020-03-14 23:00:00 10.7 0 Calma 3 Nordeste 0 -- -- 88
2020-03-14 22:00:00 11.7 0 Calma 3 Nordeste 0 -- -- 85
2020-03-14 21:00:00 13.1 0 Calma 6 Nordeste 0 -- -- 81
2020-03-14 20:00:00 15.7 0 Calma 9 Sudoeste 0 -- -- 74
2020-03-14 19:00:00 18.2 0 Calma 8 Sudoeste 0 -- -- 68
2020-03-14 18:00:00 19.8 4 Sur 8 Sur 0 -- -- 56
2020-03-14 17:00:00 19.6 2 Sudoeste 13 Sudeste 0 -- -- 58
2020-03-14 16:00:00 19.7 5 Sur 13 Sudeste 0 -- -- 56
2020-03-14 15:00:00 20.7 5 Sur 10 Sudoeste 0 -- -- 52
2020-03-14 14:00:00 19.7 3 Este 14 Sudoeste 0 -- -- 55
2020-03-14 13:00:00 20.4 5 Sudoeste 15 Sudeste 0 -- -- 51
2020-03-14 12:00:00 17.8 2 Sur 10 Sudoeste 0 -- -- 61
2020-03-14 11:00:00 17.9 4 Sur 9 Sudeste 0 -- -- 68
2020-03-14 10:00:00 16.3 2 Sur 5 Sur 0 -- -- 73
2020-03-14 09:00:00 10.6 0 Calma 3 Nordeste 0 -- -- 94
2020-03-14 08:00:00 7.6 0 Calma 2 Este 0 -- -- 94
2020-03-14 07:00:00 7.9 0 Calma 2 Nordeste 0 -- -- 94
2020-03-14 06:00:00 8 0 Calma 2 Este 0 -- -- 93
2020-03-14 05:00:00 8.3 0 Calma 2 Este 0 -- -- 93
2020-03-14 04:00:00 8.6 0 Calma 3 Nordeste 0 -- -- 92
2020-03-14 03:00:00 9.1 0 Calma 3 Nordeste 0 -- -- 89
2020-03-14 02:00:00 9.6 0 Calma 5 Noroeste 0 -- -- 89
2020-03-14 01:00:00 9.6 0 Calma 3 Este 0 -- -- 89
2020-03-14 00:00:00 9.9 0 Calma 3 Nordeste 0 -- -- 88
2020-03-13 23:00:00 10.5 0 Calma 3 Nordeste 0 -- -- 85
2020-03-13 22:00:00 11.9 3 Nordeste 5 Nordeste 0 -- -- 82
2020-03-13 21:00:00 13.4 0 Calma 5 Oeste 0 -- -- 76
2020-03-13 20:00:00 15.6 0 Calma 19 Oeste 0 -- -- 66
2020-03-13 19:00:00 18.7 10 Sudoeste 21 Sudoeste 0 -- -- 55
2020-03-13 18:00:00 20.4 12 Sudoeste 22 Sudoeste 0 -- -- 51
2020-03-13 17:00:00 22.9 8 Sudoeste 22 Sudoeste 0 -- -- 35
2020-03-13 16:00:00 23.4 11 Sudoeste 23 Sudoeste 0 -- -- 35
2020-03-13 15:00:00 22.7 9 Sudoeste 22 Oeste 0 -- -- 33
2020-03-13 14:00:00 22.5 5 Sudoeste 19 Sudoeste 0 -- -- 40
2020-03-13 13:00:00 21.1 4 Sudeste 14 Sur 0 -- -- 41
2020-03-13 12:00:00 19.4 6 Sudeste 13 Sur 0 -- -- 47
2020-03-13 11:00:00 17.5 6 Sudeste 11 Sudeste 0 -- -- 49
2020-03-13 10:00:00 12.4 0 Calma 2 Este 0 -- -- 80
2020-03-13 09:00:00 8 0 Calma 3 Nordeste 0 -- -- 93
2020-03-13 08:00:00 6.8 0 Calma 2 Nordeste 0 -- -- 92
2020-03-13 07:00:00 6.9 0 Calma 2 Nordeste 0 -- -- 90
2020-03-13 06:00:00 7 0 Calma 3 Este 0 -- -- 87
2020-03-13 05:00:00 7 0 Calma 2 Nordeste 0 -- -- 86
2020-03-13 04:00:00 7.8 0 Calma 2 Nordeste 0 -- -- 82
2020-03-13 03:00:00 8.6 0 Calma 3 Este 0 -- -- 78
2020-03-13 02:00:00 9.6 0 Calma 7 Nordeste 0 -- -- 75
2020-03-13 01:00:00 10.6 2 Nordeste 6 Nordeste 0 -- -- 71
2020-03-13 00:00:00 11.5 2 Noroeste 10 Nordeste 0 -- -- 62
2020-03-12 23:00:00 11.9 3 Nordeste 5 Este 0 -- -- 62
2020-03-12 22:00:00 13.4 0 Calma 6 Sudoeste 0 -- -- 55
2020-03-12 21:00:00 14.1 0 Calma 6 Nordeste 0 -- -- 50
2020-03-12 20:00:00 17.2 2 Nordeste 16 Sudoeste 0 -- -- 44
2020-03-12 19:00:00 21.8 9 Sudoeste 20 Sudoeste 0 -- -- 31
2020-03-12 18:00:00 24.4 9 Sur 18 Sudoeste 0 -- -- 31
2020-03-12 17:00:00 25.2 8 Sudoeste 23 Sudoeste 0 -- -- 32
2020-03-12 16:00:00 25.4 10 Sudoeste 22 Sudoeste 0 -- -- 33
2020-03-12 15:00:00 25.1 10 Sur 24 Sudeste 0 -- -- 32
2020-03-12 14:00:00 25.1 9 Sur 23 Sur 0 -- -- 32
2020-03-12 13:00:00 24.4 8 Sur 14 Sur 0 -- -- 34
2020-03-12 12:00:00 23 7 Sudeste 13 Sudeste 0 -- -- 39
2020-03-12 11:00:00 21.9 6 Sudeste 10 Sudeste 0 -- -- 41
2020-03-12 10:00:00 17.4 0 Calma 4 Sudeste 0 -- -- 63
2020-03-12 09:00:00 12 0 Calma 3 Norte 0 -- -- 83
2020-03-12 08:00:00 9.9 0 Calma 6 Norte 0 -- -- 80
2020-03-12 07:00:00 9.8 0 Calma 4 Nordeste 0 -- -- 77
2020-03-12 06:00:00 9.8 0 Calma 3 Sudoeste 0 -- -- 78
2020-03-12 05:00:00 10.1 0 Calma 6 Sudoeste 0 -- -- 74
2020-03-12 04:00:00 10.8 0 Calma 10 Nordeste 0 -- -- 75
2020-03-12 03:00:00 11.2 0 Calma 4 Este 0 -- -- 76
2020-03-12 02:00:00 11.6 0 Calma 4 Nordeste 0 -- -- 74
2020-03-12 01:00:00 11.5 0 Calma 4 Nordeste 0 -- -- 75
2020-03-12 00:00:00 12 0 Calma 4 Nordeste 0 -- -- 74
2020-03-11 23:00:00 12.8 0 Calma 2 Norte 0 -- -- 74
2020-03-11 22:00:00 13.5 0 Calma 2 Nordeste 0 -- -- 68
2020-03-11 21:00:00 14.8 0 Calma 6 Nordeste 0 -- -- 60
2020-03-11 20:00:00 16.9 0 Calma 4 Nordeste 0 -- -- 59
2020-03-11 19:00:00 21.6 2 Nordeste 5 Nordeste 0 -- -- 46
2020-03-11 18:00:00 26.1 0 Calma 10 Sudoeste 0 -- -- 33
2020-03-11 17:00:00 27.4 6 Sudoeste 20 Sudoeste 0 -- -- 26
2020-03-11 16:00:00 28.1 9 Sudoeste 17 Sur 0 -- -- 26
2020-03-11 15:00:00 27.9 10 Sur 18 Sur 0 -- -- 24
2020-03-11 14:00:00 27.4 7 Sur 15 Sudeste 0 -- -- 28
2020-03-11 13:00:00 26.1 7 Sur 14 Sur 0 -- -- 29
2020-03-11 12:00:00 24.5 5 Sur 11 Sur 0 -- -- 42
2020-03-11 11:00:00 23.2 5 Sur 8 Sur 0 -- -- 41
2020-03-11 10:00:00 18.4 0 Calma 2 Sur 0 -- -- 62
2020-03-11 09:00:00 11.3 0 Calma 3 Este 0 -- -- 81
2020-03-11 08:00:00 8 0 Calma 3 Nordeste 0 -- -- 84
2020-03-11 07:00:00 8.1 0 Calma 4 Este 0 -- -- 84
2020-03-11 06:00:00 8.3 0 Calma 5 Nordeste 0 -- -- 84
2020-03-11 05:00:00 9.2 0 Calma 4 Nordeste 0 -- -- 78
2020-03-11 04:00:00 12.2 0 Calma 15 Norte 0 -- -- 67
2020-03-11 03:00:00 9.2 2 Norte 9 Norte 0 -- -- 80
2020-03-11 02:00:00 9.2 3 Nordeste 5 Este 0 -- -- 81
2020-03-11 01:00:00 10 0 Calma 4 Este 0 -- -- 77
2020-03-11 00:00:00 10 0 Calma 5 Este 0 -- -- 79
2020-03-10 23:00:00 10.1 0 Calma 6 Nordeste 0 -- -- 78
2020-03-10 22:00:00 11.4 2 Norte 8 Nordeste 0 -- -- 72
2020-03-10 21:00:00 13.5 0 Calma 5 Nordeste 0 -- -- 65
2020-03-10 20:00:00 16.2 4 Nordeste 10 Norte 0 -- -- 55
2020-03-10 19:00:00 20.8 3 Norte 12 Oeste 0 -- -- 43
2020-03-10 18:00:00 23.5 3 Nordeste 15 Oeste 0 -- -- 36
2020-03-10 17:00:00 23.8 4 Nordeste 16 Oeste 0 -- -- 35
2020-03-10 16:00:00 24 5 Noroeste 17 Norte 0 -- -- 33
2020-03-10 15:00:00 23.5 6 Nordeste 24 Este 0 -- -- 35
2020-03-10 14:00:00 23.4 6 Noroeste 19 Nordeste 0 -- -- 35
2020-03-10 13:00:00 21.5 12 Este 22 Nordeste 0 -- -- 35
2020-03-10 12:00:00 20.6 6 Nordeste 20 Nordeste 0 -- -- 38
2020-03-10 11:00:00 18.9 13 Nordeste 23 Nordeste 0 -- -- 40
2020-03-10 10:00:00 17.5 9 Nordeste 21 Norte 0 -- -- 42
2020-03-10 09:00:00 13.2 6 Norte 14 Norte 0 -- -- 50
2020-03-10 08:00:00 5.7 3 Noroeste 8 Norte 0 -- -- 74
2020-03-10 07:00:00 4.7 0 Calma 10 Norte 0 -- -- 79
2020-03-10 06:00:00 5.2 0 Calma 3 Nordeste 0 -- -- 78
2020-03-10 05:00:00 6.2 0 Calma 4 Nordeste 0 -- -- 75
2020-03-10 04:00:00 9.6 3 Nordeste 15 Nordeste 0 -- -- 56
2020-03-10 03:00:00 8.6 3 Norte 12 Este 0 -- -- 63
2020-03-10 02:00:00 9.5 4 Norte 10 Nordeste 0 -- -- 64
2020-03-10 01:00:00 8.7 0 Calma 6 Oeste 0 -- -- 74
2020-03-10 00:00:00 8.7 2 Oeste 7 Oeste 0 -- -- 70
2020-03-09 23:00:00 8 0 Calma 7 Oeste 0 -- -- 74
2020-03-09 22:00:00 9.2 0 Calma 6 Nordeste 0 -- -- 71
2020-03-09 21:00:00 11.7 3 Noroeste 10 Noroeste 0 -- -- 56
2020-03-09 20:00:00 12.2 4 Norte 9 Noroeste 0 -- -- 54
2020-03-09 19:00:00 15.2 3 Nordeste 10 Sudoeste 0 -- -- 45
2020-03-09 18:00:00 17.9 3 Sudeste 18 Oeste 0 -- -- 34
2020-03-09 17:00:00 19.9 9 Noroeste 21 Noroeste 0 -- -- 38
2020-03-09 16:00:00 19.7 10 Oeste 24 Oeste 0 -- -- 37
2020-03-09 15:00:00 18.8 6 Sudoeste 21 Sudoeste 0 -- -- 48
2020-03-09 14:00:00 17.7 10 Sur 18 Sudoeste 0 -- -- 48
2020-03-09 13:00:00 16.7 6 Sur 12 Sur 0 -- -- 45
2020-03-09 12:00:00 15.3 5 Sur 11 Sur 0 -- -- 49
2020-03-09 11:00:00 13.1 5 Sur 13 Sudeste 0 -- -- 61
2020-03-09 10:00:00 10.4 9 Sudeste 13 Sudeste 0 -- -- 74
2020-03-09 09:00:00 8.3 4 Sudeste 14 Noroeste 0 -- -- 79
2020-03-09 08:00:00 7.7 7 Nordeste 15 Norte 0 -- -- 81
2020-03-09 07:00:00 6.7 0 Calma 9 Noroeste 0 -- -- 86
2020-03-09 06:00:00 6.8 0 Calma 6 Este 0 -- -- 85
2020-03-09 05:00:00 7.6 3 Este 9 Este 0 -- -- 84
2020-03-09 04:00:00 8.8 5 Nordeste 15 Nordeste 0 -- -- 79
2020-03-09 03:00:00 10.1 9 Nordeste 17 Nordeste 0 -- -- 73
2020-03-09 02:00:00 9.9 4 Nordeste 9 Este 0 -- -- 69
2020-03-09 01:00:00 8.1 4 Este 8 Sudeste 0 -- -- 76
2020-03-09 00:00:00 7.7 0 Calma 4 Nordeste 0 -- -- 68
2020-03-08 23:00:00 9.8 0 Calma 5 Oeste 0 -- -- 56
2020-03-08 22:00:00 10.9 2 Sudoeste 10 Norte 0 -- -- 50
2020-03-08 21:00:00 12.2 4 Norte 10 Norte 0 -- -- 44
2020-03-08 20:00:00 13.5 4 Nordeste 10 Nordeste 0 -- -- 45
2020-03-08 19:00:00 15.4 3 Nordeste 9 Noroeste 0 -- -- 39
2020-03-08 18:00:00 17.3 3 Oeste 18 Oeste 0 -- -- 36
2020-03-08 17:00:00 -- -- -- -- -- -- -- -- --
2020-03-08 16:00:00 -- -- -- -- -- -- -- -- --
2020-03-08 15:00:00 -- -- -- -- -- -- -- -- --
2020-03-08 14:00:00 -- -- -- -- -- -- -- -- --
2020-03-08 13:00:00 -- -- -- -- -- -- -- -- --
2020-03-08 12:00:00 -- -- -- -- -- -- -- -- --
2020-03-08 11:00:00 -- -- -- -- -- -- -- -- --
2020-03-08 10:00:00 -- -- -- -- -- -- -- -- --
2020-03-08 09:00:00 -- -- -- -- -- -- -- -- --
2020-03-08 08:00:00 -- -- -- -- -- -- -- -- --
2020-03-08 07:00:00 -- -- -- -- -- -- -- -- --
2020-03-08 06:00:00 -- -- -- -- -- -- -- -- --
2020-03-08 05:00:00 -- -- -- -- -- -- -- -- --
2020-03-08 04:00:00 -- -- -- -- -- -- -- -- --
2020-03-08 03:00:00 -- -- -- -- -- -- -- -- --
2020-03-08 02:00:00 -- -- -- -- -- -- -- -- --
2020-03-08 01:00:00 -- -- -- -- -- -- -- -- --
2020-03-08 00:00:00 -- -- -- -- -- -- -- -- --
2020-03-07 23:00:00 -- -- -- -- -- -- -- -- --
2020-03-07 22:00:00 -- -- -- -- -- -- -- -- --
2020-03-07 21:00:00 -- -- -- -- -- -- -- -- --
2020-03-07 20:00:00 -- -- -- -- -- -- -- -- --
2020-03-07 19:00:00 -- -- -- -- -- -- -- -- --
2020-03-07 18:00:00 -- -- -- -- -- -- -- -- --
2020-03-07 17:00:00 -- -- -- -- -- -- -- -- --
2020-03-07 16:00:00 -- -- -- -- -- -- -- -- --
2020-03-07 15:00:00 -- -- -- -- -- -- -- -- --
2020-03-07 14:00:00 -- -- -- -- -- -- -- -- --
2020-03-07 13:00:00 -- -- -- -- -- -- -- -- --
2020-03-07 12:00:00 -- -- -- -- -- -- -- -- --
2020-03-07 11:00:00 -- -- -- -- -- -- -- -- --
2020-03-07 10:00:00 -- -- -- -- -- -- -- -- --
2020-03-07 09:00:00 -- -- -- -- -- -- -- -- --
2020-03-07 08:00:00 -- -- -- -- -- -- -- -- --
2020-03-07 07:00:00 -- -- -- -- -- -- -- -- --
2020-03-07 06:00:00 -- -- -- -- -- -- -- -- --
2020-03-07 05:00:00 -- -- -- -- -- -- -- -- --
2020-03-07 04:00:00 2.7 0 Calma 12 Norte 0 -- -- 81
2020-03-07 03:00:00 3.6 2 Este 8 Norte 0 -- -- 78
2020-03-07 02:00:00 4.5 6 Noroeste 13 Noroeste 0 -- -- 73
2020-03-07 01:00:00 3.1 2 Este 5 Noroeste 0 -- -- 82
2020-03-07 00:00:00 3.5 0 Calma 5 Noroeste 0 -- -- 83
2020-03-06 23:00:00 4.4 0 Calma 4 Oeste 0 -- -- 80
2020-03-06 22:00:00 5.7 0 Calma 5 Este 0 -- -- 74
2020-03-06 21:00:00 6.9 3 Este 10 Este 0 -- -- 67
2020-03-06 20:00:00 7.3 0 Calma 7 Sudeste 0 -- -- 69
2020-03-06 19:00:00 10.2 0 Calma 17 Noroeste 0 -- -- 57
2020-03-06 18:00:00 12.1 6 Noroeste 26 Noroeste 0 -- -- 51
2020-03-06 17:00:00 13.1 12 Oeste 28 Noroeste 0 -- -- 48
2020-03-06 16:00:00 13.4 13 Oeste 33 Oeste 0 -- -- 50
2020-03-06 15:00:00 12.9 10 Oeste 32 Oeste 0 -- -- 51
2020-03-06 14:00:00 13 11 Oeste 28 Sudoeste 0 -- -- 53
2020-03-06 13:00:00 11.2 8 Noroeste 33 Noroeste 0 -- -- 58
2020-03-06 12:00:00 10.8 13 Oeste 28 Oeste 0 -- -- 64
2020-03-06 11:00:00 9.9 12 Oeste 32 Noroeste 0 -- -- 68
2020-03-06 10:00:00 7.9 7 Oeste 19 Sudoeste 0 -- -- 81
2020-03-06 09:00:00 6.1 6 Oeste 21 Oeste 0 -- -- 91
2020-03-06 08:00:00 5.3 0 Calma 10 Noroeste 0 -- -- 88
2020-03-06 07:00:00 5.9 4 Oeste 18 Noroeste 0 -- -- 83
2020-03-06 06:00:00 5.2 4 Oeste 17 Oeste 0 -- -- 87
2020-03-06 05:00:00 3.9 2 Nordeste 8 Nordeste 0 -- -- 90
2020-03-06 04:00:00 3.7 3 Nordeste 8 Nordeste 0 -- -- 92
2020-03-06 03:00:00 4.2 2 Este 9 Norte 0 -- -- 88
2020-03-06 02:00:00 5.7 0 Calma 14 Noroeste 0 -- -- 82
2020-03-06 01:00:00 7.4 2 Noroeste 20 Oeste 0 -- -- 77
2020-03-06 00:00:00 8.6 6 Sudoeste 22 Noroeste 0 -- -- 74
2020-03-05 23:00:00 9.5 5 Oeste 24 Oeste 0 -- -- 75
2020-03-05 22:00:00 10.2 13 Sudoeste 27 Sudoeste 0 -- -- 72
2020-03-05 21:00:00 10.3 6 Oeste 16 Oeste 0 -- -- 69
2020-03-05 20:00:00 10.9 7 Oeste 19 Oeste 0 -- -- 64
2020-03-05 19:00:00 11.9 4 Noroeste 19 Oeste 0 -- -- 63
2020-03-05 18:00:00 13.7 8 Oeste 29 Noroeste 0 -- -- 57
2020-03-05 17:00:00 13.4 12 Oeste 34 Oeste 0 -- -- 60
2020-03-05 16:00:00 14.5 13 Sudoeste 35 Sudoeste 0 -- -- 56
2020-03-05 15:00:00 13.6 16 Sudoeste 35 Oeste 0 -- -- 60
2020-03-05 14:00:00 10.9 18 Sudoeste 41 Oeste 0.6 -- -- 86
2020-03-05 13:00:00 11 10 Oeste 31 Oeste 1.2 -- -- 89
2020-03-05 12:00:00 11.4 8 Oeste 37 Sudoeste 0 -- -- 85
2020-03-05 11:00:00 11.8 10 Sur 27 Sudoeste 0 -- -- 81
2020-03-05 10:00:00 10.5 5 Este 18 Sur 0 -- -- 88
2020-03-05 09:00:00 9.7 6 Oeste 22 Oeste 0 -- -- 90
2020-03-05 08:00:00 9.6 5 Oeste 19 Sudoeste 0 -- -- 91
2020-03-05 07:00:00 8 0 Calma 4 Sudoeste 0 -- -- 93
2020-03-05 06:00:00 7.6 0 Calma 4 Sudoeste 0 -- -- 94
2020-03-05 05:00:00 7.1 0 Calma 5 Nordeste 0 -- -- 96
2020-03-05 04:00:00 5.9 2 Nordeste 6 Este 0 -- -- 96
2020-03-05 03:00:00 4.8 0 Calma 3 Este 0 -- -- 94
2020-03-05 02:00:00 5.1 0 Calma 3 Sudoeste 0 -- -- 93
2020-03-05 01:00:00 5.6 0 Calma 3 Este 0 -- -- 92
2020-03-05 00:00:00 6.3 0 Calma 3 Nordeste 0 -- -- 91
2020-03-04 23:00:00 7.2 0 Calma 4 Este 0 -- -- 88
2020-03-04 22:00:00 9.1 0 Calma 3 Nordeste 0 -- -- 81
2020-03-04 21:00:00 12.1 2 Oeste 12 Noroeste 0 -- -- 68
2020-03-04 20:00:00 12.3 3 Este 12 Noroeste 0 -- -- 68
2020-03-04 19:00:00 12.8 0 Calma 16 Oeste 0 -- -- 69
2020-03-04 18:00:00 13.3 5 Oeste 19 Sudoeste 0 -- -- 66
2020-03-04 17:00:00 13.9 6 Oeste 19 Sudoeste 0 -- -- 65
2020-03-04 16:00:00 14.8 8 Oeste 24 Sudoeste 0 -- -- 64
2020-03-04 15:00:00 14.7 9 Oeste 25 Oeste 0 -- -- 63
2020-03-04 14:00:00 14.7 12 Sudoeste 23 Oeste 0 -- -- 66
2020-03-04 13:00:00 14.5 9 Oeste 19 Oeste 0.2 -- -- 66
2020-03-04 12:00:00 13.1 4 Noroeste 17 Noroeste 0 -- -- 71
2020-03-04 11:00:00 12.3 4 Oeste 13 Oeste 0 -- -- 73
2020-03-04 10:00:00 11.5 4 Oeste 12 Sudoeste 0 -- -- 81
2020-03-04 09:00:00 11.1 4 Sudoeste 12 Sudoeste 0 -- -- 89
2020-03-04 08:00:00 10.9 6 Sudoeste 10 Oeste 0.2 -- -- 91
2020-03-04 07:00:00 11.2 0 Calma 10 Norte 0 -- -- 90
2020-03-04 06:00:00 11.5 4 Oeste 16 Oeste 0 -- -- 85
2020-03-04 05:00:00 11.7 4 Sudoeste 14 Oeste 0 -- -- 84
2020-03-04 04:00:00 11.9 3 Oeste 16 Oeste 0 -- -- 85
2020-03-04 03:00:00 12 8 Oeste 24 Oeste 0 -- -- 86
2020-03-04 02:00:00 12 6 Oeste 23 Sudoeste 0 -- -- 86
2020-03-04 01:00:00 11.9 7 Oeste 20 Sudoeste 0 -- -- 88
2020-03-04 00:00:00 11.2 6 Sur 22 Sudoeste 0 -- -- 91